Time;durP1;ratioP1;P1;durP2;ratioP2;P2;SDS_P1;SDS_P2;PMS_P1;PMS_P2;Temp;Humidity;BMP_temperature;BMP_pressure;BME280_temperature;BME280_humidity;BME280_pressure;Samples;Min_cycle;Max_cycle;Signal;HPM_P1;HPM_P2
2023/09/27 00:00:25;;;;;;;;;;;;;;;14.10;66.21;101591.20;104953;1294;61122;-57
2023/09/27 00:03:12;;;;;;;;;;;;;;;14.06;66.19;101591.97;104984;1292;61234;-57
2023/09/27 00:05:58;;;;;;;;;;;;;;;13.97;66.21;101588.14;105026;1294;72278;-56
2023/09/27 00:08:44;;;;;;;;;;;;;;;13.94;66.51;101587.67;104995;1292;67725;-57
2023/09/27 00:11:30;;;;;;;;;;;;;;;13.90;66.39;101585.29;104990;1294;71298;-57
2023/09/27 00:14:16;;;;;;;;;;;;;;;13.84;66.62;101585.71;104987;1289;62708;-56
2023/09/27 00:17:03;;;;;;;;;;;;;;;13.78;66.22;101580.60;104958;1291;62837;-57
2023/09/27 00:19:50;;;;;;;;;;;;;;;13.72;66.25;101581.21;104974;1292;75937;-57
2023/09/27 00:22:37;;;;;;;;;;;;;;;13.63;66.13;101579.77;104948;1293;67436;-55
2023/09/27 00:25:23;;;;;;;;;;;;;;;13.56;66.51;101580.20;104959;1293;73947;-57
2023/09/27 00:28:10;;;;;;;;;;;;;;;13.52;66.37;101579.56;104981;1288;61650;-57
2023/09/27 00:30:56;;;;;;;;;;;;;;;13.50;66.66;101577.52;104966;1290;61236;-56
2023/09/27 00:33:42;;;;;;;;;;;;;;;13.48;66.67;101575.14;104938;1289;74990;-56
2023/09/27 00:36:28;;;;;;;;;;;;;;;13.46;66.65;101574.81;104969;1289;66244;-56
2023/09/27 00:39:14;;;;;;;;;;;;;;;13.39;66.47;101571.78;105003;1289;73224;-57
2023/09/27 00:42:00;;;;;;;;;;;;;;;13.29;66.71;101572.77;104922;1288;61173;-57
2023/09/27 00:44:46;;;;;;;;;;;;;;;13.23;67.05;101572.99;105020;1289;62916;-56
2023/09/27 00:47:33;;;;;;;;;;;;;;;13.21;67.07;101573.20;104982;1289;73314;-56
2023/09/27 00:50:19;;;;;;;;;;;;;;;13.19;66.87;101574.43;105023;1289;67195;-57
2023/09/27 00:53:06;;;;;;;;;;;;;;;13.16;67.43;101571.86;104905;1288;74068;-57
2023/09/27 00:55:53;;;;;;;;;;;;;;;13.13;67.54;101569.10;104966;1292;61183;-56
2023/09/27 00:58:40;;;;;;;;;;;;;;;13.12;67.32;101568.77;104947;1290;61611;-56
2023/09/27 01:01:26;;;;;;;;;;;;;;;13.07;66.89;101566.73;104981;1288;73221;-57
2023/09/27 01:04:13;;;;;;;;;;;;;;;13.02;67.35;101566.81;104988;1292;67187;-57
2023/09/27 01:06:59;;;;;;;;;;;;;;;12.98;67.22;101570.52;104959;1294;73253;-57
2023/09/27 01:09:45;;;;;;;;;;;;;;;12.97;67.69;101571.04;104954;1289;61295;-57
2023/09/27 01:12:32;;;;;;;;;;;;;;;12.96;67.87;101569.84;104870;1289;61147;-57
2023/09/27 01:15:18;;;;;;;;;;;;;;;12.92;67.89;101567.45;106272;1289;74304;-57
2023/09/27 01:18:04;;;;;;;;;;;;;;;12.89;67.83;101563.33;106320;1289;68666;-58
2023/09/27 01:20:49;;;;;;;;;;;;;;;12.87;67.91;101563.36;106256;1289;71391;-57
2023/09/27 01:23:37;;;;;;;;;;;;;;;12.83;67.66;101564.94;106316;1289;59137;-57
2023/09/27 01:26:23;;;;;;;;;;;;;;;12.82;67.74;101564.79;106302;1288;60506;-57
2023/09/27 01:29:09;;;;;;;;;;;;;;;12.78;67.29;101564.13;106333;1289;73325;-57
2023/09/27 01:31:55;;;;;;;;;;;;;;;12.76;67.74;101565.02;105949;1290;67502;-57
2023/09/27 01:34:41;;;;;;;;;;;;;;;12.75;67.56;101562.44;104960;1292;71729;-56
2023/09/27 01:37:27;;;;;;;;;;;;;;;12.71;67.67;101566.45;104997;1289;62405;-57
2023/09/27 01:40:16;;;;;;;;;;;;;;;12.69;67.70;101566.64;105002;1294;61132;-56
2023/09/27 01:43:03;;;;;;;;;;;;;;;12.65;67.73;101565.81;104899;1293;73432;-57
2023/09/27 01:45:49;;;;;;;;;;;;;;;12.61;67.92;101564.47;104950;1289;71833;-57
2023/09/27 01:48:35;;;;;;;;;;;;;;;12.59;67.89;101563.45;104995;1289;72915;-56
2023/09/27 01:51:21;;;;;;;;;;;;;;;12.56;68.00;101561.05;104989;1289;61177;-57
2023/09/27 01:54:07;;;;;;;;;;;;;;;12.54;68.37;101558.82;104970;1289;61170;-57
2023/09/27 01:56:54;;;;;;;;;;;;;;;12.53;68.30;101559.34;104975;1289;73185;-56
2023/09/27 01:59:40;;;;;;;;;;;;;;;12.50;68.14;101558.16;104967;1292;70012;-56
2023/09/27 02:02:28;;;;;;;;;;;;;;;12.46;68.07;101556.66;104992;1289;74132;-57
2023/09/27 02:05:14;;;;;;;;;;;;;;;12.42;68.19;101553.77;104918;1289;62663;-56
2023/09/27 02:08:00;;;;;;;;;;;;;;;12.41;68.56;101555.84;104941;1289;62496;-57
2023/09/27 02:10:49;;;;;;;;;;;;;;;12.39;68.55;101553.45;104982;1289;73307;-57
2023/09/27 02:13:35;;;;;;;;;;;;;;;12.38;68.51;101554.67;104947;1289;67225;-57
2023/09/27 02:16:22;;;;;;;;;;;;;;;12.36;68.47;101554.86;104935;1289;72155;-57
2023/09/27 02:19:08;;;;;;;;;;;;;;;12.36;68.66;101554.52;104919;1292;62840;-57
2023/09/27 02:21:54;;;;;;;;;;;;;;;12.38;68.97;101554.33;104958;1289;60079;-57
2023/09/27 02:24:40;;;;;;;;;;;;;;;12.39;68.99;101549.48;104910;1293;73378;-57
2023/09/27 02:27:26;;;;;;;;;;;;;;;12.39;69.13;101551.38;104967;1291;66593;-57
2023/09/27 02:30:14;;;;;;;;;;;;;;;12.34;68.55;101553.84;104915;1289;70616;-57
2023/09/27 02:33:00;;;;;;;;;;;;;;;12.26;68.54;101552.69;104934;1291;61167;-56
2023/09/27 02:35:46;;;;;;;;;;;;;;;12.20;68.76;101553.25;104958;1289;61160;-57
2023/09/27 02:38:34;;;;;;;;;;;;;;;12.22;69.57;101547.18;104977;1289;73272;-57
2023/09/27 02:41:20;;;;;;;;;;;;;;;12.25;69.53;101545.61;105022;1293;67269;-56
2023/09/27 02:44:06;;;;;;;;;;;;;;;12.29;69.54;101547.48;104962;1289;71191;-57
2023/09/27 02:46:55;;;;;;;;;;;;;;;12.33;69.61;101543.99;105019;1289;64322;-56
2023/09/27 02:49:42;;;;;;;;;;;;;;;12.34;69.05;101544.33;104934;1289;61153;-56
2023/09/27 02:52:28;;;;;;;;;;;;;;;12.34;69.17;101543.63;104946;1289;76099;-57
2023/09/27 02:55:14;;;;;;;;;;;;;;;12.34;69.12;101543.46;104962;1289;67218;-57
2023/09/27 02:58:00;;;;;;;;;;;;;;;12.33;69.42;101542.42;104955;1290;73979;-57
2023/09/27 03:00:46;;;;;;;;;;;;;;;12.33;69.52;101544.67;104982;1289;61144;-57
2023/09/27 03:03:34;;;;;;;;;;;;;;;12.34;69.39;101541.05;105047;1289;61193;-54
2023/09/27 03:06:20;;;;;;;;;;;;;;;12.35;69.43;101535.16;104956;1292;73212;-57
2023/09/27 03:09:08;;;;;;;;;;;;;;;12.36;69.52;101537.40;104963;1289;67331;-57
2023/09/27 03:11:55;;;;;;;;;;;;;;;12.34;69.39;101534.83;104944;1289;71250;-56
2023/09/27 03:14:41;;;;;;;;;;;;;;;12.31;69.50;101534.49;104955;1289;61001;-57
2023/09/27 03:17:28;;;;;;;;;;;;;;;12.30;69.61;101536.57;104973;1289;61142;-57
2023/09/27 03:20:18;;;;;;;;;;;;;;;12.31;69.68;101535.88;104958;1289;73601;-56
2023/09/27 03:23:05;;;;;;;;;;;;;;;12.31;69.90;101541.06;104927;1289;68106;-55
2023/09/27 03:25:51;;;;;;;;;;;;;;;12.29;69.89;101539.70;104917;1289;72396;-57
2023/09/27 03:28:38;;;;;;;;;;;;;;;12.24;69.81;101542.84;104976;1289;61170;-57
2023/09/27 03:31:24;;;;;;;;;;;;;;;12.20;69.31;101544.95;104974;1290;61452;-57
2023/09/27 03:34:10;;;;;;;;;;;;;;;12.14;69.67;101547.25;104965;1291;77713;-56
2023/09/27 03:36:57;;;;;;;;;;;;;;;12.09;69.25;101547.98;104920;1289;69293;-57
2023/09/27 03:39:43;;;;;;;;;;;;;;;12.03;69.58;101548.36;105012;1293;73332;-57
2023/09/27 03:42:30;;;;;;;;;;;;;;;12.00;69.80;101553.23;104937;1289;61187;-57
2023/09/27 03:45:16;;;;;;;;;;;;;;;12.00;69.97;101553.57;104981;1292;60074;-58
2023/09/27 03:48:02;;;;;;;;;;;;;;;12.00;70.16;101549.08;104958;1288;73248;-57
2023/09/27 03:50:48;;;;;;;;;;;;;;;11.93;69.73;101552.60;104953;1289;66401;-57
2023/09/27 03:53:35;;;;;;;;;;;;;;;11.83;69.53;101551.80;104877;1289;71289;-57
2023/09/27 03:56:22;;;;;;;;;;;;;;;11.74;69.78;101552.86;104949;1289;62365;-57
2023/09/27 03:59:09;;;;;;;;;;;;;;;11.71;69.86;101552.70;104964;1288;61175;-57
2023/09/27 04:01:55;;;;;;;;;;;;;;;11.72;70.07;101547.86;104860;1290;73263;-57
2023/09/27 04:04:41;;;;;;;;;;;;;;;11.70;70.10;101549.09;104931;1289;67289;-56
2023/09/27 04:07:27;;;;;;;;;;;;;;;11.69;70.06;101550.65;104923;1288;71173;-55
2023/09/27 04:10:17;;;;;;;;;;;;;;;11.69;70.47;101553.75;104927;1289;61160;-57
2023/09/27 04:13:04;;;;;;;;;;;;;;;11.70;70.52;101555.99;104897;1289;60609;-57
2023/09/27 04:15:50;;;;;;;;;;;;;;;11.65;70.30;101553.08;105014;1289;72213;-57
2023/09/27 04:18:36;;;;;;;;;;;;;;;11.58;69.82;101556.22;104942;1294;67316;-56
2023/09/27 04:21:22;;;;;;;;;;;;;;;11.55;70.25;101557.80;104873;1289;71267;-57
2023/09/27 04:24:08;;;;;;;;;;;;;;;11.53;70.43;101558.48;105015;1292;61126;-57
2023/09/27 04:26:54;;;;;;;;;;;;;;;11.49;70.45;101556.44;104959;1289;59234;-58
2023/09/27 04:29:41;;;;;;;;;;;;;;;11.46;70.50;101560.42;104888;1290;73732;-55
2023/09/27 04:32:27;;;;;;;;;;;;;;;11.43;70.59;101559.77;101986;1289;5009929;-57
2023/09/27 04:35:13;;;;;;;;;;;;;;;11.41;70.30;101557.02;105225;1289;61269;-57
2023/09/27 04:37:59;;;;;;;;;;;;;;;11.39;70.21;101555.30;105854;1291;309254;-58
2023/09/27 04:40:46;;;;;;;;;;;;;;;11.38;70.46;101562.73;106289;1289;73446;-58
2023/09/27 04:43:32;;;;;;;;;;;;;;;11.36;70.32;101568.09;106292;1292;68683;-57
2023/09/27 04:46:18;;;;;;;;;;;;;;;11.37;70.76;101568.61;106240;1290;73008;-58
2023/09/27 04:49:04;;;;;;;;;;;;;;;11.37;70.43;101568.77;106259;1289;59338;-58
2023/09/27 04:51:50;;;;;;;;;;;;;;;11.35;70.46;101573.80;106283;1288;59765;-58
2023/09/27 04:54:36;;;;;;;;;;;;;;;11.38;70.71;101571.71;106264;1289;74510;-57
2023/09/27 04:57:22;;;;;;;;;;;;;;;11.41;70.53;101577.39;106288;1288;66197;-56
2023/09/27 05:00:14;;;;;;;;;;;;;;;11.44;70.31;101583.92;106244;1290;72361;-58
2023/09/27 05:02:59;;;;;;;;;;;;;;;11.49;70.83;101584.93;106305;1288;59275;-58
2023/09/27 05:05:45;;;;;;;;;;;;;;;11.54;70.75;101583.17;106286;1289;59023;-57
2023/09/27 05:08:31;;;;;;;;;;;;;;;11.58;70.60;101581.96;106292;1288;73788;-58
2023/09/27 05:11:20;;;;;;;;;;;;;;;11.61;70.97;101579.00;106301;1289;67773;-58
2023/09/27 05:14:06;;;;;;;;;;;;;;;11.63;70.75;101580.90;106293;1289;72416;-58
2023/09/27 05:16:52;;;;;;;;;;;;;;;11.65;70.74;101579.85;106300;1288;58979;-58
2023/09/27 05:19:38;;;;;;;;;;;;;;;11.68;70.69;101585.19;106275;1289;59399;-58
2023/09/27 05:22:24;;;;;;;;;;;;;;;11.73;70.95;101584.99;106088;1289;74473;-59
2023/09/27 05:25:10;;;;;;;;;;;;;;;11.79;70.67;101587.23;106354;1288;67680;-57
2023/09/27 05:27:57;;;;;;;;;;;;;;;11.83;70.87;101581.35;106308;1288;71433;-58
2023/09/27 05:30:42;;;;;;;;;;;;;;;11.88;71.13;101584.59;106300;1289;59706;-58
2023/09/27 05:33:28;;;;;;;;;;;;;;;11.93;71.35;101581.98;106305;1291;59114;-59
2023/09/27 05:36:14;;;;;;;;;;;;;;;11.96;71.34;101582.65;106285;1289;74602;-58
2023/09/27 05:39:02;;;;;;;;;;;;;;;11.96;71.31;101583.66;106305;1288;68512;-57
2023/09/27 05:41:48;;;;;;;;;;;;;;;11.93;71.22;101583.19;106317;1289;70639;-57
2023/09/27 05:44:33;;;;;;;;;;;;;;;11.92;71.29;101579.91;106293;1289;59354;-58
2023/09/27 05:47:20;;;;;;;;;;;;;;;11.92;70.86;101583.36;106314;1291;59873;-57
2023/09/27 05:50:12;;;;;;;;;;;;;;;11.92;71.08;101586.65;104741;1289;310532;-58
2023/09/27 05:52:59;;;;;;;;;;;;;;;11.93;71.33;101589.93;105347;1288;74869;-58
2023/09/27 05:55:47;;;;;;;;;;;;;;;12.02;71.28;101592.09;106310;1288;72535;-57
2023/09/27 05:58:37;;;;;;;;;;;;;;;12.14;71.45;101594.43;106262;1289;59081;-57
2023/09/27 06:01:23;;;;;;;;;;;;;;;12.29;71.49;101596.92;106259;1289;59116;-56
2023/09/27 06:04:10;;;;;;;;;;;;;;;12.43;71.36;101602.52;104874;1289;73237;-57
2023/09/27 06:06:58;;;;;;;;;;;;;;;12.58;71.69;101607.05;104850;1289;68154;-57
2023/09/27 06:09:44;;;;;;;;;;;;;;;12.76;71.92;101610.52;104873;1291;73091;-57
2023/09/27 06:12:30;;;;;;;;;;;;;;;12.95;71.71;101611.03;104870;1290;61138;-57
2023/09/27 06:15:17;;;;;;;;;;;;;;;13.16;71.90;101621.90;104898;1289;61553;-56
2023/09/27 06:18:04;;;;;;;;;;;;;;;13.35;72.14;101622.23;104945;1289;73272;-57
2023/09/27 06:20:50;;;;;;;;;;;;;;;13.59;72.22;101630.23;104956;1288;69461;-57
2023/09/27 06:23:38;;;;;;;;;;;;;;;13.82;71.91;101629.93;104909;1289;71284;-57
2023/09/27 06:26:24;;;;;;;;;;;;;;;14.05;72.14;101635.68;104915;1289;61205;-57
2023/09/27 06:29:10;;;;;;;;;;;;;;;14.32;72.27;101631.81;104911;1290;59259;-57
2023/09/27 06:31:56;;;;;;;;;;;;;;;14.63;72.25;101630.98;104946;1289;73132;-57
2023/09/27 06:34:43;;;;;;;;;;;;;;;14.96;72.60;101628.86;104920;1289;67269;-57
2023/09/27 06:37:29;;;;;;;;;;;;;;;15.21;72.26;101636.87;104892;1292;71263;-57
2023/09/27 06:40:16;;;;;;;;;;;;;;;15.46;72.58;101638.32;104963;1288;61139;-57
2023/09/27 06:43:04;;;;;;;;;;;;;;;15.81;72.47;101637.42;104976;1294;61257;-57
2023/09/27 06:45:50;;;;;;;;;;;;;;;16.18;72.86;101632.58;106236;1293;74292;-58
2023/09/27 06:48:37;;;;;;;;;;;;;;;16.53;72.56;101632.27;106287;1289;68149;-58
2023/09/27 06:51:24;;;;;;;;;;;;;;;16.83;72.41;101632.73;106293;1289;71854;-58
2023/09/27 06:54:10;;;;;;;;;;;;;;;17.06;72.32;101629.89;106291;1289;58979;-57
2023/09/27 06:56:56;;;;;;;;;;;;;;;17.38;72.44;101630.36;106242;1289;59121;-57
2023/09/27 06:59:41;;;;;;;;;;;;;;;17.72;72.31;101633.40;106205;1291;73392;-57
2023/09/27 07:02:27;;;;;;;;;;;;;;;18.01;72.17;101633.94;105665;1289;67379;-57
2023/09/27 07:05:14;;;;;;;;;;;;;;;18.29;72.21;101633.05;104802;1289;71248;-57
2023/09/27 07:08:00;;;;;;;;;;;;;;;18.70;72.37;101631.89;104940;1289;61321;-57
2023/09/27 07:10:47;;;;;;;;;;;;;;;19.00;72.83;101640.44;104943;1288;61629;-56
2023/09/27 07:13:33;;;;;;;;;;;;;;;19.09;72.08;101647.48;102320;1289;5160890;-56
2023/09/27 07:16:26;;;;;;;;;;;;;;;19.31;72.33;101646.33;106236;1289;71185;-55
2023/09/27 07:19:13;;;;;;;;;;;;;;;19.75;72.41;101645.95;106269;1289;59487;-56
2023/09/27 07:22:01;;;;;;;;;;;;;;;20.01;72.44;101654.56;106298;1288;58977;-57
2023/09/27 07:24:47;;;;;;;;;;;;;;;20.29;72.87;101659.92;106240;1289;73720;-57
2023/09/27 07:27:33;;;;;;;;;;;;;;;20.52;72.34;101660.58;106272;1290;68683;-57
2023/09/27 07:30:23;;;;;;;;;;;;;;;20.91;72.14;101664.55;106236;1289;72172;-57
2023/09/27 07:33:10;;;;;;;;;;;;;;;21.21;71.84;101670.48;106268;1289;58925;-57
2023/09/27 07:35:58;;;;;;;;;;;;;;;21.49;71.64;101676.80;106250;1288;61354;-57
2023/09/27 07:38:44;;;;;;;;;;;;;;;21.79;71.84;101676.98;106252;1289;73470;-57
2023/09/27 07:41:31;;;;;;;;;;;;;;;22.27;72.03;101675.45;106281;1288;68398;-56
2023/09/27 07:44:17;;;;;;;;;;;;;;;22.88;71.59;101671.03;106148;1289;71285;-57
2023/09/27 07:47:03;;;;;;;;;;;;;;;23.27;71.04;101673.38;106297;1289;59336;-56
2023/09/27 07:49:49;;;;;;;;;;;;;;;23.69;70.78;101675.89;106298;1288;59279;-58
2023/09/27 07:52:36;;;;;;;;;;;;;;;23.82;70.30;101678.77;106268;1289;73357;-57
2023/09/27 07:55:21;;;;;;;;;;;;;;;23.92;69.47;101677.98;106307;1288;67277;-57
2023/09/27 07:58:07;;;;;;;;;;;;;;;24.25;71.62;101675.95;106255;1289;71245;-58
2023/09/27 08:00:53;;;;;;;;;;;;;;;25.03;71.95;101679.20;106236;1288;59025;-58
2023/09/27 08:03:39;;;;;;;;;;;;;;;25.68;69.61;101685.48;106220;1289;60012;-57
2023/09/27 08:06:25;;;;;;;;;;;;;;;26.05;70.68;101697.80;106304;1289;75397;-58
2023/09/27 08:09:12;;;;;;;;;;;;;;;26.36;70.34;101696.13;106266;1292;66736;-58
2023/09/27 08:11:59;;;;;;;;;;;;;;;26.57;68.40;101690.86;106239;1289;71317;-58
2023/09/27 08:14:45;;;;;;;;;;;;;;;26.84;70.72;101689.20;106245;1289;58988;-58
2023/09/27 08:17:32;;;;;;;;;;;;;;;27.39;69.07;101690.27;106296;1291;59733;-58
2023/09/27 08:20:18;;;;;;;;;;;;;;;27.43;67.43;101693.30;106254;1292;74453;-59
2023/09/27 08:23:04;;;;;;;;;;;;;;;27.44;68.62;101695.21;106263;1291;68585;-58
2023/09/27 08:25:51;;;;;;;;;;;;;;;27.90;69.56;101687.98;106281;1290;71407;-58
2023/09/27 08:28:37;;;;;;;;;;;;;;;28.22;64.04;101679.85;106256;1290;59535;-57
2023/09/27 08:31:23;;;;;;;;;;;;;;;28.40;67.76;101682.56;106174;1290;59448;-58
2023/09/27 08:34:09;;;;;;;;;;;;;;;28.50;63.80;101684.16;106261;1288;73098;-58
2023/09/27 08:36:55;;;;;;;;;;;;;;;28.55;66.71;101686.42;106290;1288;67211;-59
2023/09/27 08:39:41;;;;;;;;;;;;;;;29.17;66.01;101679.23;106253;1289;72783;-58
2023/09/27 08:42:29;;;;;;;;;;;;;;;29.88;67.43;101679.61;106236;1289;59951;-58
2023/09/27 08:45:14;;;;;;;;;;;;;;;30.50;64.31;101678.08;106271;1288;59262;-59
2023/09/27 08:48:00;;;;;;;;;;;;;;;30.59;64.36;101679.50;106312;1289;74330;-59
2023/09/27 08:50:48;;;;;;;;;;;;;;;30.40;58.31;101674.46;106261;1289;68542;-59
2023/09/27 08:53:38;;;;;;;;;;;;;;;30.55;61.89;101675.56;106281;1288;72727;-59
2023/09/27 08:56:26;;;;;;;;;;;;;;;30.53;60.42;101676.39;106215;1288;59257;-59
2023/09/27 08:59:12;;;;;;;;;;;;;;;30.75;59.32;101677.20;106193;1291;60058;-59
2023/09/27 09:01:58;;;;;;;;;;;;;;;31.12;59.40;101672.79;106205;1289;74889;-60
2023/09/27 09:04:44;;;;;;;;;;;;;;;31.14;56.24;101671.03;106164;1289;67802;-60
2023/09/27 09:07:30;;;;;;;;;;;;;;;31.05;55.49;101673.95;106258;1288;72350;-59
2023/09/27 09:10:17;;;;;;;;;;;;;;;31.50;58.76;101671.26;106289;1289;58975;-59
2023/09/27 09:13:04;;;;;;;;;;;;;;;32.12;56.84;101668.63;106241;1291;59787;-59
2023/09/27 09:15:51;;;;;;;;;;;;;;;32.95;55.78;101663.59;106247;1290;73507;-60
2023/09/27 09:18:39;;;;;;;;;;;;;;;33.08;56.16;101662.16;106217;1292;69004;-59
2023/09/27 09:21:26;;;;;;;;;;;;;;;33.90;57.48;101660.08;106212;1289;71218;-59
2023/09/27 09:24:20;;;;;;;;;;;;;;;34.59;54.20;101658.34;106300;1289;59292;-60
2023/09/27 09:27:09;;;;;;;;;;;;;;;34.87;56.61;101661.05;106244;1289;59896;-59
2023/09/27 09:29:57;;;;;;;;;;;;;;;35.83;56.83;101654.70;106237;1289;73462;-59
2023/09/27 09:32:51;;;;;;;;;;;;;;;36.69;55.37;101656.25;106272;1289;68541;-60
2023/09/27 09:35:37;;;;;;;;;;;;;;;36.50;51.79;101648.80;106286;1288;71223;-60
2023/09/27 09:38:28;;;;;;;;;;;;;;;36.18;49.83;101648.75;106262;1288;59099;-60
2023/09/27 09:41:14;;;;;;;;;;;;;;;36.08;51.71;101651.48;106257;1289;59124;-60
2023/09/27 09:44:15;;;;;;;;;;;;;;;36.15;47.33;101648.51;106240;1289;73478;-60
2023/09/27 09:47:11;;;;;;;;;;;;;;;36.15;47.63;101649.31;106227;1289;69510;-60
2023/09/27 09:49:57;;;;;;;;;;;;;;;35.64;45.24;101644.95;106287;1288;71161;-59
2023/09/27 09:52:59;;;;;;;;;;;;;;;36.22;45.99;101646.87;106279;1288;58994;-59
2023/09/27 09:55:47;;;;;;;;;;;;;;;37.00;46.88;101643.84;106280;1289;59632;-59
2023/09/27 09:58:39;;;;;;;;;;;;;;;37.72;47.41;101642.00;106278;1289;75020;-59
2023/09/27 10:01:27;;;;;;;;;;;;;;;38.59;47.05;101637.23;105098;1289;67475;-59
2023/09/27 10:04:13;;;;;;;;;;;;;;;39.48;47.23;101632.41;104902;1289;71712;-59
2023/09/27 10:07:01;;;;;;;;;;;;;;;40.23;46.15;101634.98;104896;1291;62416;-58
2023/09/27 10:09:49;;;;;;;;;;;;;;;40.79;46.42;101635.20;105022;1289;62167;-59
2023/09/27 10:12:36;;;;;;;;;;;;;;;41.37;45.58;101628.86;104993;1289;73231;-58
2023/09/27 10:15:22;;;;;;;;;;;;;;;41.66;45.27;101630.86;104912;1291;67555;-58
2023/09/27 10:18:21;;;;;;;;;;;;;;;41.95;44.80;101629.34;104909;1292;73189;-58
2023/09/27 10:21:12;;;;;;;;;;;;;;;42.56;44.18;101626.45;104987;1289;61287;-59
2023/09/27 10:24:01;;;;;;;;;;;;;;;42.49;41.19;101617.96;104954;1292;61244;-58
2023/09/27 10:26:47;;;;;;;;;;;;;;;42.43;41.57;101617.17;104945;1289;73235;-59
2023/09/27 10:30:02;;;;;;;;;;;;;;;41.90;36.81;101615.35;104941;1292;67300;-59
2023/09/27 10:32:48;;;;;;;;;;;;;;;41.17;36.31;101613.81;104925;1289;73287;-60
2023/09/27 10:35:34;;;;;;;;;;;;;;;40.98;36.62;101607.17;104954;1289;59676;-59
2023/09/27 10:38:20;;;;;;;;;;;;;;;41.24;34.54;101602.27;104929;1289;59289;-60
2023/09/27 10:41:07;;;;;;;;;;;;;;;41.11;35.32;101596.16;104990;1289;73350;-58
2023/09/27 10:43:54;;;;;;;;;;;;;;;41.88;36.34;101596.83;104923;1290;71383;-59
2023/09/27 10:46:41;;;;;;;;;;;;;;;42.71;35.76;101594.41;104950;1289;72706;-59
2023/09/27 10:49:33;;;;;;;;;;;;;;;42.94;35.64;101588.54;104965;1289;62714;-59
2023/09/27 10:52:20;;;;;;;;;;;;;;;43.39;33.50;101585.77;104964;1292;59286;-58
2023/09/27 10:55:10;;;;;;;;;;;;;;;43.09;32.29;101585.81;104971;1289;72789;-60
2023/09/27 10:57:56;;;;;;;;;;;;;;;42.10;30.52;101582.30;104815;1292;67314;-59
2023/09/27 11:01:04;;;;;;;;;;;;;;;42.44;32.69;101572.60;104844;1292;71716;-59
2023/09/27 11:04:03;;;;;;;;;;;;;;;43.03;31.69;101570.02;104950;1289;61154;-58
2023/09/27 11:06:50;;;;;;;;;;;;;;;43.20;31.48;101568.84;104931;1289;61154;-58
2023/09/27 11:09:43;;;;;;;;;;;;;;;43.28;29.48;101565.73;104964;1289;77352;-58
2023/09/27 11:12:29;;;;;;;;;;;;;;;43.24;30.33;101561.73;104935;1292;67534;-58
2023/09/27 11:15:22;;;;;;;;;;;;;;;43.41;29.88;101560.02;104921;1289;73884;-59
2023/09/27 11:18:10;;;;;;;;;;;;;;;42.91;27.46;101559.77;104960;1289;61194;-59
2023/09/27 11:20:55;;;;;;;;;;;;;;;42.57;28.64;101557.96;105068;1288;59291;-58
2023/09/27 11:23:57;;;;;;;;;;;;;;;42.74;28.28;101559.23;104930;1289;73636;-58
2023/09/27 11:26:44;;;;;;;;;;;;;;;42.66;27.76;101555.65;104945;1289;67227;-58
2023/09/27 11:29:30;;;;;;;;;;;;;;;42.66;27.35;101557.24;104886;1292;73016;-59
2023/09/27 11:32:16;;;;;;;;;;;;;;;42.63;27.30;101555.34;104954;1289;61153;-58
2023/09/27 11:35:04;;;;;;;;;;;;;;;42.69;26.56;101549.33;104919;1289;59366;-59
2023/09/27 11:38:03;;;;;;;;;;;;;;;41.12;24.36;101544.79;104918;1289;75167;-59
2023/09/27 11:40:49;;;;;;;;;;;;;;;40.10;25.71;101543.20;104943;1294;67295;-59
2023/09/27 11:43:35;;;;;;;;;;;;;;;39.94;26.72;101544.68;104895;1289;71657;-58
2023/09/27 11:46:28;;;;;;;;;;;;;;;40.43;26.44;101547.23;104943;1289;61860;-61
2023/09/27 11:49:14;;;;;;;;;;;;;;;40.16;26.08;101547.45;104918;1289;61219;-59
2023/09/27 11:52:01;;;;;;;;;;;;;;;40.06;26.43;101543.13;104893;1292;76031;-58
2023/09/27 11:54:47;;;;;;;;;;;;;;;40.01;26.47;101542.92;106291;1289;67365;-59
2023/09/27 11:57:33;;;;;;;;;;;;;;;40.05;26.55;101543.95;106225;1288;72557;-59
2023/09/27 12:00:19;;;;;;;;;;;;;;;40.26;26.49;101545.33;106230;1294;59371;-59
2023/09/27 12:03:05;;;;;;;;;;;;;;;40.31;26.45;101548.55;106306;1289;59396;-59
2023/09/27 12:05:51;;;;;;;;;;;;;;;40.16;26.27;101540.98;106216;1289;73351;-58
2023/09/27 12:08:38;;;;;;;;;;;;;;;40.22;26.29;101538.37;106266;1289;68802;-58
2023/09/27 12:11:24;;;;;;;;;;;;;;;40.56;26.29;101535.25;106245;1288;72249;-59
2023/09/27 12:14:10;;;;;;;;;;;;;;;40.53;26.06;101535.31;106289;1289;59175;-59
2023/09/27 12:16:56;;;;;;;;;;;;;;;39.91;26.23;101534.64;106249;1293;59918;-59
2023/09/27 12:19:43;;;;;;;;;;;;;;;38.85;25.70;101532.14;106255;1288;73423;-59
2023/09/27 12:22:31;;;;;;;;;;;;;;;37.57;25.97;101531.52;106266;1288;68098;-59
2023/09/27 12:25:17;;;;;;;;;;;;;;;36.50;26.29;101522.35;106266;1287;72657;-59
2023/09/27 12:28:03;;;;;;;;;;;;;;;35.69;26.50;101518.81;106183;1292;59276;-58
2023/09/27 12:30:49;;;;;;;;;;;;;;;35.54;26.58;101514.71;106243;1288;59836;-57
2023/09/27 12:33:35;;;;;;;;;;;;;;;35.35;26.51;101505.46;106110;1289;74423;-57
2023/09/27 12:36:21;;;;;;;;;;;;;;;35.15;26.93;101507.86;106288;1289;67907;-58
2023/09/27 12:39:07;;;;;;;;;;;;;;;35.33;27.07;101505.10;106231;1289;72820;-59
2023/09/27 12:41:53;;;;;;;;;;;;;;;34.98;26.94;101504.69;106266;1289;59064;-58
2023/09/27 12:44:39;;;;;;;;;;;;;;;34.90;27.21;101498.60;106198;1292;60110;-58
2023/09/27 12:47:25;;;;;;;;;;;;;;;34.59;27.11;101497.73;106296;1293;73169;-58
2023/09/27 12:50:11;;;;;;;;;;;;;;;34.36;27.50;101500.27;106277;1289;67355;-59
2023/09/27 12:52:57;;;;;;;;;;;;;;;33.98;27.67;101499.52;106206;1289;71388;-58
2023/09/27 12:55:43;;;;;;;;;;;;;;;33.86;27.68;101501.43;106217;1289;59015;-57
2023/09/27 12:58:29;;;;;;;;;;;;;;;34.20;27.89;101494.25;106201;1288;59339;-57
2023/09/27 13:01:16;;;;;;;;;;;;;;;34.50;27.67;101492.55;106269;1289;72719;-58
2023/09/27 13:04:02;;;;;;;;;;;;;;;34.25;27.84;101490.38;106126;1294;68482;-58
2023/09/27 13:06:48;;;;;;;;;;;;;;;34.46;27.88;101486.85;106227;1288;73906;-58
2023/09/27 13:09:34;;;;;;;;;;;;;;;34.04;28.07;101481.05;106223;1289;59225;-58
2023/09/27 13:12:20;;;;;;;;;;;;;;;33.48;28.44;101479.48;106253;1289;58902;-59
2023/09/27 13:15:06;;;;;;;;;;;;;;;32.91;28.67;101473.55;106263;1290;73395;-59
2023/09/27 13:17:52;;;;;;;;;;;;;;;32.41;29.08;101473.04;106256;1289;67201;-58
2023/09/27 13:20:38;;;;;;;;;;;;;;;31.98;29.48;101467.36;105755;1289;72027;-57
2023/09/27 13:23:24;;;;;;;;;;;;;;;31.59;29.45;101464.36;104821;1290;61182;-57
2023/09/27 13:26:11;;;;;;;;;;;;;;;31.28;30.28;101462.27;104953;1289;61190;-57
2023/09/27 13:28:57;;;;;;;;;;;;;;;30.86;30.04;101457.79;104886;1294;73306;-56
2023/09/27 13:31:43;;;;;;;;;;;;;;;30.60;30.05;101450.46;104931;1290;67317;-56
2023/09/27 13:34:30;;;;;;;;;;;;;;;30.52;30.74;101452.73;104905;1289;73945;-57
2023/09/27 13:37:19;;;;;;;;;;;;;;;30.21;30.46;101447.09;104917;1288;61427;-57
2023/09/27 13:40:12;;;;;;;;;;;;;;;29.92;30.66;101448.48;104926;1289;62931;-57
2023/09/27 13:42:58;;;;;;;;;;;;;;;29.57;30.41;101447.89;106191;1289;73405;-58
2023/09/27 13:45:44;;;;;;;;;;;;;;;29.26;30.73;101446.31;106299;1289;67436;-57
2023/09/27 13:48:30;;;;;;;;;;;;;;;29.09;31.15;101447.06;106232;1288;71144;-58
2023/09/27 13:51:15;;;;;;;;;;;;;;;28.95;31.11;101443.76;106277;1288;59059;-58
2023/09/27 13:54:02;;;;;;;;;;;;;;;28.88;32.32;101441.63;106237;1288;59711;-56
2023/09/27 13:56:48;;;;;;;;;;;;;;;28.69;32.06;101436.59;106261;1289;74346;-56
2023/09/27 13:59:34;;;;;;;;;;;;;;;28.64;32.12;101437.69;106208;1292;68523;-58
2023/09/27 14:02:20;;;;;;;;;;;;;;;28.59;31.97;101432.17;102234;1290;5152510;-57
2023/09/27 14:05:06;;;;;;;;;;;;;;;28.58;32.20;101428.04;106262;1288;58884;-57